• Join FlightAware (Why Join?)
  • Login
  • US Flag 
11:47PM EDT


 

Airport Tracker/Info


-or-


 

Live Flight TrackerFlight Track Log ✈ ASQ5818 ✈ 15-May-2013 ✈ KORD - KMHT

Flight Track Log - Related Links

Times and Time Zones

All times are in EDT time to prevent confusion due to time zone crossing. See the ASQ5818 flight status page for this flight to view local times or setup timezone preferences in your user account.

Time Position Orientation Groundspeed Altitude Reporting Facility
EDT Latitude Longitude Course Direction KTS MPH feet Rate Location/Type
08:34PM 41.9667 -87.8167 66° East 213 245 3,300  Level Chicago TRACON
08:35PM 41.9667 -87.7333 90° East 260 299 4,600 1,500 Climbing Chicago TRACON
08:36PM 41.9500 -87.6167 101° East 294 338 6,200 1,860 Climbing Chicago TRACON
08:37PM 42.0000 -87.5333 51° Northeast 288 331 8,400 1,920 Climbing Chicago TRACON
08:38PM 42.0500 -87.4500 51° Northeast 310 357 10,100 1,620 Climbing Chicago TRACON
08:39PM 42.2221 -87.2005 66° East  Level FlightAware Approximate
08:40PM 42.1369 -87.3042 51° Northeast 329 379 12,700  Level Chicago Center
08:41PM 42.2100 -87.1817 51° Northeast 352 405 13,900 1,140 Climbing Chicago Center
08:42PM 42.2733 -87.0669 53° Northeast 378 435 15,100 1,140 Climbing Chicago Center
08:43PM 42.2844 -86.9186 84° East 397 457 16,300 1,200 Climbing Chicago Center
08:44PM 42.2903 -86.7689 87° East 401 461 17,600 1,320 Climbing Chicago Center
08:45PM 42.2981 -86.5931 87° East 415 478 19,100 1,260 Climbing Chicago Center
08:46PM 42.3031 -86.4447 87° East 420 483 20,300 1,080 Climbing Chicago Center
08:47PM 42.3097 -86.2831 87° East 430 495 21,400 960 Climbing Chicago Center
08:48PM 42.3144 -86.1186 88° East 439 505 22,400 1,140 Climbing Chicago Center
08:49PM 42.3131 -85.9169 90° East 449 517 23,800 1,380 Climbing Chicago Center
08:50PM 42.3114 -85.7511 91° East 447 514 25,300 1,380 Climbing Chicago Center
08:51PM 42.3086 -85.5881 91° East 440 506 26,700 1,200 Climbing Chicago Center
08:52PM 42.3072 -85.4242 91° East 440 506 27,900 1,080 Climbing Chicago Center
08:53PM 42.3058 -85.2781 91° East 444 511 28,800 900 Climbing Cleveland Center
08:54PM 42.3022 -85.1122 92° East 439 505 29,700 900 Climbing Cleveland Center
08:55PM 42.3003 -84.9464 91° East 445 512 30,700 900 Climbing Cleveland Center
08:56PM 42.2961 -84.7747 92° East 445 512 31,600 900 Climbing Cleveland Center
08:57PM 42.2878 -84.6056 94° East 450 518 32,500 900 Climbing Cleveland Center
08:58PM 42.2872 -84.4344 90° East 450 518 33,500 900 Climbing Cleveland Center
08:59PM 42.3136 -84.2647 78° East 450 518 34,400 720 Climbing Cleveland Center
09:00PM 42.3294 -84.0942 83° East 456 525 35,000 300 Climbing Cleveland Center
09:01PM 42.3453 -83.9125 83° East 472 543 35,000  Level Cleveland Center
09:02PM 42.3608 -83.7278 83° East 485 558 35,000  Level Cleveland Center
09:03PM 42.3747 -83.5175 85° East 500 575 35,000  Level Cleveland Center
09:04PM 42.3897 -83.3300 84° East 506 582 35,000  Level Cleveland Center
09:05PM 42.4064 -83.1533 83° East 513 590 35,000  Level Cleveland Center
09:06PM 42.4214 -82.9458 84° East 513 590 35,000  Level Cleveland Center
09:07PM 42.4356 -82.7550 84° East 513 590 35,000  Level Cleveland Center
09:08PM 42.4494 -82.5614 84° East 508 585 35,000  Level Cleveland Center
09:09PM 42.4631 -82.3703 84° East 513 590 35,000  Level Cleveland Center
09:10PM 42.4761 -82.1822 85° East 513 590 35,000  Level Cleveland Center
09:11PM 42.4892 -81.9881 85° East 513 590 35,000  Level Cleveland Center
09:12PM 42.5017 -81.7942 85° East 513 590 35,000  Level Cleveland Center
09:13PM 42.5161 -81.6028 84° East 513 590 35,000  Level Cleveland Center
09:14PM 42.5281 -81.4114 85° East 513 590 35,000  Level Cleveland Center
09:15PM 42.5419 -81.2172 84° East 518 596 35,000  Level Cleveland Center
09:16PM 42.5511 -81.0256 86° East 518 596 35,000  Level Cleveland Center
09:17PM 42.5642 -80.8342 85° East 513 590 35,000  Level Cleveland Center
09:18PM 42.5728 -80.6592 86° East 518 596 35,000  Level Cleveland Center
09:19PM 42.5831 -80.4647 86° East 518 596 35,000  Level Cleveland Center
09:20PM 42.5931 -80.2700 86° East 513 590 35,000  Level Cleveland Center
09:21PM 42.6050 -80.0783 85° East 517 595 35,000  Level Cleveland Center
09:22PM 42.6164 -79.8778 86° East 517 595 35,000  Level Cleveland Center
09:23PM 42.6256 -79.6858 86° East 517 595 35,000  Level Cleveland Center
09:24PM 42.6322 -79.4994 87° East 506 582 35,000  Level Cleveland Center
09:25PM 42.6428 -79.2989 86° East 513 590 35,000  Level Cleveland Center
09:26PM 42.6508 -79.1011 87° East 518 596 35,000  Level Cleveland Center
09:27PM 42.6586 -78.9089 87° East 518 596 35,000  Level Cleveland Center
09:28PM 42.6661 -78.7139 87° East 518 596 35,000  Level Cleveland Center
09:29PM 42.6711 -78.5217 88° East 513 590 35,000  Level Cleveland Center
09:30PM 42.6800 -78.3267 86° East 513 590 35,000  Level Cleveland Center
09:31PM 42.6864 -78.1286 87° East 519 597 35,000  Level Cleveland Center
09:32PM 42.6925 -77.9306 88° East 519 597 35,000  Level Cleveland Center
09:33PM 42.6967 -77.7581 88° East 514 592 35,000  Level Cleveland Center
09:34PM 42.7036 -77.5403 87° East 514 592 35,000  Level Cleveland Center
09:35PM 42.7111 -77.2078 88° East 542 624 35,000  Level Boston Center
09:36PM 42.7169 -77.0106 88° East 537 618 35,000  Level Boston Center
09:37PM 42.7206 -76.8156 88° East 526 605 35,000  Level Boston Center
09:38PM 42.7258 -76.6208 88° East 519 597 35,000  Level Boston Center
09:39PM 42.7289 -76.4203 89° East 514 592 35,000  Level Boston Center
09:40PM 42.7328 -76.2425 88° East 514 592 35,000  Level Boston Center
09:41PM 42.7372 -76.0447 88° East 514 592 35,000  Level Boston Center
09:42PM 42.7392 -75.8469 89° East 514 592 35,000  Level Boston Center
09:43PM 42.7428 -75.6464 89° East 514 592 35,000  Level Boston Center
09:44PM 42.7422 -75.4425 90° East 521 600 35,000  Level Boston Center
09:45PM 42.7450 -75.2447 89° East 521 600 35,000 -120 Level Boston Center
09:46PM 42.7458 -75.0442 90° East 526 605 34,800 -840 Descending Boston Center
09:47PM 42.7458 -74.8489 90° East 526 605 33,400 -1,980 Descending Boston Center
09:48PM 42.7456 -74.6567 90° East 514 592 30,900 -2,340 Descending Boston Center
09:49PM 42.7492 -74.4617 88° East 514 592 28,800 -1,860 Descending Boston Center
09:50PM 42.7483 -74.2667 90° East 514 592 27,200 -1,740 Descending Boston Center
09:51PM 42.7472 -74.0631 90° East 514 592 25,400 -1,800 Descending Boston Center
09:52PM 42.7458 -73.8678 90° East 514 592 23,600 -1,800 Descending Boston Center
09:53PM 42.7522 -73.6672 87° East 514 592 21,900 -1,500 Descending Boston Center
09:54PM 42.7603 -73.4781 87° East 509 586 20,600 -1,200 Descending Boston Center
09:55PM 42.7683 -73.2858 87° East 509 586 19,600 -840 Descending Boston Center
09:56PM 42.7736 -73.0794 88° East 498 573 19,000 -300 Descending Boston Center
09:57PM 42.7850 -72.9097 85° East 498 573 19,000 -120 Level Boston Center
09:58PM 42.7939 -72.7203 86° East 498 573 18,800 -900 Descending Boston Center
09:59PM 42.8006 -72.5222 87° East 492 566 17,300 -2,040 Descending Boston Center
10:00PM 42.8067 -72.3522 87° East 478 550 14,800 -2,760 Descending Boston Center
10:01PM 42.8128 -72.1911 87° East 442 509 11,800 -2,100 Descending Boston Center
10:02PM 42.8186 -72.0553 87° East 410 472 10,600 -1,260 Descending Boston Center
10:03PM 42.8597 -71.9331 65° Northeast 317 365 9,300 -1,620 Descending Boston Center
10:04PM 42.9011 -71.8419 58° Northeast 312 359 7,400 -1,920 Descending Boston Center
10:05PM 42.9589 -71.7478 50° Northeast 293 337 5,500 -1,560 Descending Boston Center
10:06PM 43.0022 -71.6708 52° Northeast 287 330 4,300 -1,200 Descending Boston Center
10:07PM 43.0514 -71.5736 55° Northeast 282 325 3,200 -960 Descending Boston Center
10:08PM 43.0364 -71.4942 104° East 203 234 2,400 -900 Descending Boston Center
10:10PM 42.9839 -71.4667 159° South 169 194 1,300 -960 Descending Boston Center
10:11PM 42.9419 -71.4389 154° Southeast 151 174 400 -480 Descending Boston Center
10:12PM 42.9086 -71.4197 157° South 151 174 400  Level Boston Center
10:19PM 42.9167 -71.4333 316° Northwest  Level FlightAware Approximate
10:26PM 42.9328 -71.4358 316° Northwest  Level Estimated
10:27PM 42.9328 -71.4358 316° Northwest  Level Estimated